Nederlandse vliegveldverwachtingen (TAF)

Luchtvaartmeteorologische informatie voor operationeel gebruik en vluchtvoorbereiding is beschikbaar op www.luchtvaartmeteo.nl.

ZCZC
FC200500 EHGR RRB GILZE-RIJEN/GILZE-RIJEN   NLD   14 m.
TAF EHGR 200539Z 2006/2018 VRB03KT 7000 NSC
    TEMPO 2006/2018 3000 BR MIFG
    PROB40 TEMPO 2006/2009 0500 FZFG
    BECMG 2010/2013 09006KT
    PROB40 TEMPO 2011/2018 SCT004 BKN008=

ZCZC
FC200500 EHVK RRA VOLKEL/VOLKEL   NLD   21 m.
TAF EHVK 200536Z 2006/2018 VRB03KT 3000 BR NSC
    TEMPO 2006/2010 1000 BR MIFG
    PROB40 TEMPO 2006/2009 0400 FZFG
    BECMG 2010/2013 09006KT 6000 NSW
    PROB40 TEMPO 2010/2018 4000 BR SCT004 BKN008=

ZCZC
FC200500 EHKD RRD DE KOOY/DE KOOY   NLD   1 m.
TAF EHKD 200547Z 2006/2018 VRB03KT CAVOK
    BECMG 2012/2015 11007KT
    PROB40 TEMPO 2013/2018 4000 BR OVC005
    PROB30 TEMPO 2013/2018 1200 BCFG SCT002 OVC004=

ZCZC
FC200500 EHWO RRC WOENSDRECHT/WOENSDRECHT   NLD   19 m.
TAF EHWO 200545Z 2006/2018 VRB03KT 7000 NSC
    TEMPO 2006/2010 4000 BR
    PROB30 TEMPO 2006/2008 1500 BR MIFG
    BECMG 2010/2013 09006KT
    PROB40 TEMPO 2015/2018 SCT004 BKN008=

ZCZC
FC200500 EHLW RRE LEEUWARDEN/LEEUWARDEN   NLD   1 m.
TAF EHLW 200550Z 2006/2018 VRB03KT 0400 FG OVC001
    TEMPO 2006/2010 0100 FG FZFG
    BECMG 2011/2014 13006KT 1500 BR MIFG BKN003
    PROB30 TEMPO 2012/2018 3000 SCT004 BKN006=

ZCZC
FT200500 EHAM     AMSTERDAM/SCHIPHOL   NLD   -3 m.
TAF EHAM 200503Z 2006/2112 11005KT 6000 MIFG NSC
    PROB30 2007/2010 0800 BCFG FZFG
    BECMG 2009/2012 CAVOK
    BECMG 2014/2017 2500 BR BKN003
    BECMG 2109/2112 6000 NSW BKN007=

ZCZC
FT200500 EHBK     MAASTRICHT/MAASTRICHT-AACHEN   NLD   114 m.
TAF EHBK 200513Z 2006/2112 12005KT 9999 BKN030
    PROB30 TEMPO 2006/2010 7000
    PROB30 2010/2014 5000 BR BKN005
    BECMG 2012/2015 09010KT
    PROB30 2020/2110 7000=

ZCZC
FT200500 EHGG     GRONINGEN/EELDE   NLD   5 m.
TAF EHGG 200514Z 2006/2112 17003KT 0200 FZFG OVC000
    BECMG 2009/2012 0800 FG BKN001
    PROB40 2011/2022 3000 BR BKN003
    PROB30 2022/2106 6000 NSC
    BECMG 2109/2112 09010KT 3000 BR BKN008=

ZCZC
FT200500 EHLE     LELYSTAD/LELYSTAD   NLD   -3 m.
TAF EHLE 200504Z 2006/2112 11005KT 0400 FZFG NSC
    BECMG 2009/2012 1500 BR BKN002
    BECMG 2109/2112 6000 NSW BKN007=

ZCZC
FT200500 EHRD     ROTTERDAM/THE HAGUE AIRPORT   NLD   -5 m.
TAF COR EHRD 200515Z 2006/2112 11005KT 6000 MIFG NSC
    TEMPO 2006/2010 1400 BCFG
    PROB30 TEMPO 2006/2010 0300 FZFG
    BECMG 2009/2012 CAVOK
    BECMG 2014/2017 2500 BR BKN003
    BECMG 2109/2112 6000 NSW NSC=

ZCZC
FT200500 EHEH     EINDHOVEN/EINDHOVEN   NLD   22 m.
TAF EHEH 200512Z 2006/2112 VRB03KT 7000 NSC
    TEMPO 2006/2018 3000 BR MIFG
    PROB40 TEMPO 2006/2009 0500 FZFG
    BECMG 2010/2013 09006KT
    PROB40 TEMPO 2010/2018 SCT004 BKN008
    PROB40 TEMPO 2020/2108 4000 BR=

20/11/2019 07.15 uur LT